Moscow, Russia
Current Conditions -  °F | °C
As of 6:00 PM on Thursday 23 Oct 2014 (Local Time) from UUWW Reporting Station
Scattered Clouds Scattered Clouds  
Wind Chill:   Ceiling: Unl
Heat Index: 19°   Visibility: 6mi
Dew Point: 10°   Wind: 11mph
Humidity: 68%   Direction: 340°NNW
Pressure: 30.36"   Gusts: NA
Location:  55.75°N, 37.62°E
Report Text: UUWW 231500Z 34005MPS 9999 SCT027 M07/M12 Q1028 01190045 NOSIG
Loading
Personal Weather Stations






























Interactive Weather Map
Tropical Storm Tracking
New forecast layout! Learn more

10-Day Weather Forecast

Advertisements
Track Severe Weather on mobile